Time;durP1;ratioP1;P1;durP2;ratioP2;P2;SDS_P1;SDS_P2;PMS_P1;PMS_P2;Temp;Humidity;BMP_temperature;BMP_pressure;BME280_temperature;BME280_humidity;BME280_pressure;Samples;Min_cycle;Max_cycle;Signal;HPM_P1;HPM_P2
2023/07/28 00:00:08;;;;;;;7.27;3.80;;;;;;;17.08;63.00;95278.75;5015270;28;20312;-76
2023/07/28 00:02:33;;;;;;;7.57;4.30;;;;;;;17.04;63.12;95273.13;5014029;28;20282;-77
2023/07/28 00:04:59;;;;;;;5.03;3.77;;;;;;;17.09;62.87;95278.53;5003798;28;20238;-77
2023/07/28 00:07:24;;;;;;;7.53;4.00;;;;;;;16.87;64.12;95263.47;5034898;28;20304;-76
2023/07/28 00:09:50;;;;;;;6.23;3.97;;;;;;;16.58;64.63;95262.53;5019162;28;20237;-76
2023/07/28 00:12:16;;;;;;;5.07;3.83;;;;;;;16.42;65.34;95274.53;4995621;28;20230;-76
2023/07/28 00:14:41;;;;;;;6.70;3.80;;;;;;;16.61;65.58;95270.00;5016054;28;20466;-75
2023/07/28 00:17:07;;;;;;;5.80;3.90;;;;;;;16.67;65.04;95271.75;5033010;28;20644;-74
2023/07/28 00:19:32;;;;;;;5.50;3.90;;;;;;;16.77;65.07;95271.97;5005215;28;20239;-77
2023/07/28 00:21:58;;;;;;;6.70;4.00;;;;;;;16.86;64.02;95267.94;4982730;28;20223;-75
2023/07/28 00:24:24;;;;;;;6.33;3.80;;;;;;;16.99;63.66;95274.84;4973279;28;20971;-76
2023/07/28 00:26:49;;;;;;;8.07;3.83;;;;;;;17.17;63.10;95269.47;5006555;28;20803;-76
2023/07/28 00:29:15;;;;;;;4.43;3.90;;;;;;;17.06;63.58;95259.66;4996511;28;20272;-76
2023/07/28 00:31:41;;;;;;;6.40;4.20;;;;;;;16.97;63.71;95259.22;4980482;28;20632;-76
2023/07/28 00:34:07;;;;;;;5.30;4.03;;;;;;;16.91;63.90;95262.78;5008247;28;20235;-75
2023/07/28 00:36:32;;;;;;;5.67;4.10;;;;;;;16.98;63.54;95260.81;5008379;28;20257;-75
2023/07/28 00:38:58;;;;;;;8.57;3.90;;;;;;;17.13;62.25;95265.66;5007562;28;20307;-75
2023/07/28 00:41:24;;;;;;;6.67;4.13;;;;;;;17.17;62.34;95257.00;5012099;28;20234;-76
2023/07/28 00:43:50;;;;;;;4.67;3.90;;;;;;;17.21;62.90;95262.66;5006911;28;20235;-77
2023/07/28 00:46:15;;;;;;;5.47;3.90;;;;;;;16.71;63.24;95267.59;5007096;28;20239;-76
2023/07/28 00:48:41;;;;;;;5.60;3.90;;;;;;;16.49;64.77;95271.78;4994131;28;20727;-76
2023/07/28 00:51:07;;;;;;;5.30;4.20;;;;;;;16.48;64.44;95278.91;5014065;28;20719;-76
2023/07/28 00:53:33;;;;;;;7.27;3.87;;;;;;;16.68;63.79;95276.00;4988548;28;20230;-75
2023/07/28 00:55:58;;;;;;;6.73;4.43;;;;;;;16.69;63.88;95261.75;5010196;28;20242;-76
2023/07/28 00:58:24;;;;;;;7.23;4.30;;;;;;;16.71;64.28;95265.78;4975132;28;20262;-76
2023/07/28 01:00:50;;;;;;;5.40;4.43;;;;;;;16.56;64.15;95260.13;5013924;28;20249;-76
2023/07/28 01:03:17;;;;;;;6.40;4.47;;;;;;;16.63;64.00;95265.28;4979781;28;20254;-76
2023/07/28 01:05:43;;;;;;;6.23;4.60;;;;;;;16.74;63.55;95267.16;5011784;28;20716;-77
2023/07/28 01:08:16;;;;;;;7.10;4.20;;;;;;;16.81;63.39;95273.13;5012547;28;20317;-75
2023/07/28 01:10:41;;;;;;;7.60;4.40;;;;;;;16.71;64.28;95264.97;5014443;28;20257;-77
2023/07/28 01:13:07;;;;;;;6.70;4.80;;;;;;;16.37;64.83;95273.59;5007716;28;20292;-77
2023/07/28 01:15:33;;;;;;;6.67;4.17;;;;;;;16.48;64.35;95278.13;4997703;28;20226;-75
2023/07/28 01:17:58;;;;;;;9.10;4.40;;;;;;;16.54;64.12;95271.94;5021280;28;20250;-76
2023/07/28 01:20:27;;;;;;;5.13;4.13;;;;;;;16.28;64.95;95272.31;4990909;28;20234;-76
2023/07/28 01:23:07;;;;;;;5.87;3.50;;;;;;;16.50;63.94;95276.06;5027473;28;20237;-75
2023/07/28 01:25:57;;;;;;;5.63;3.57;;;;;;;16.34;64.40;95276.69;5041182;28;20237;-76
2023/07/28 01:28:23;;;;;;;4.43;3.37;;;;;;;16.29;64.95;95271.31;5049455;28;20234;-77
2023/07/28 01:30:48;;;;;;;6.87;3.60;;;;;;;15.96;65.86;95262.00;4997971;28;20249;-77
2023/07/28 01:33:14;;;;;;;7.30;3.67;;;;;;;15.58;67.02;95268.59;5014104;28;20307;-76
2023/07/28 01:35:40;;;;;;;5.43;3.50;;;;;;;15.87;65.91;95265.19;5013348;28;20234;-76
2023/07/28 01:38:06;;;;;;;5.57;3.00;;;;;;;15.98;65.51;95257.28;5016026;28;20808;-77
2023/07/28 01:40:31;;;;;;;4.70;3.00;;;;;;;16.20;65.04;95265.53;5020962;28;20887;-77
2023/07/28 01:42:57;;;;;;;3.97;3.03;;;;;;;16.13;64.97;95268.25;4995075;28;20254;-76
2023/07/28 01:45:22;;;;;;;4.40;3.00;;;;;;;16.04;65.68;95266.97;5039152;28;20223;-77
2023/07/28 01:47:48;;;;;;;3.93;2.90;;;;;;;16.16;65.07;95267.81;5045804;28;20781;-77
2023/07/28 01:50:14;;;;;;;5.13;3.20;;;;;;;16.11;64.83;95261.59;5027774;28;20927;-77
2023/07/28 01:52:39;;;;;;;4.77;3.20;;;;;;;15.93;65.49;95270.34;5013428;28;20230;-77
2023/07/28 01:55:06;;;;;;;6.10;2.90;;;;;;;15.66;66.77;95268.28;5028640;28;20721;-77
2023/07/28 01:57:34;;;;;;;4.10;2.60;;;;;;;15.80;66.13;95265.28;5035458;28;20320;-76
2023/07/28 02:00:00;;;;;;;5.80;2.80;;;;;;;15.80;66.39;95267.91;5027048;28;20222;-77
2023/07/28 02:02:26;;;;;;;4.33;2.60;;;;;;;15.82;66.40;95268.47;5048646;28;20236;-77
2023/07/28 02:04:51;;;;;;;4.90;2.77;;;;;;;15.72;66.30;95270.03;5019647;28;20233;-77
2023/07/28 02:07:17;;;;;;;4.93;2.80;;;;;;;15.77;66.38;95270.97;4998143;28;20229;-76
2023/07/28 02:09:42;;;;;;;4.50;3.00;;;;;;;15.81;66.68;95266.84;5036601;28;20233;-77
2023/07/28 02:12:08;;;;;;;5.13;2.90;;;;;;;15.62;66.78;95265.28;4997299;28;20234;-77
2023/07/28 02:14:34;;;;;;;3.40;2.63;;;;;;;15.28;68.03;95256.13;5033023;28;20669;-77
2023/07/28 02:16:59;;;;;;;5.47;2.83;;;;;;;15.31;68.44;95263.59;5035989;28;20236;-76
2023/07/28 02:19:25;;;;;;;3.93;2.83;;;;;;;15.57;67.65;95265.13;5014590;28;20238;-77
2023/07/28 02:21:51;;;;;;;3.67;2.70;;;;;;;15.50;67.67;95272.31;5011100;28;20241;-77
2023/07/28 02:24:16;;;;;;;6.17;3.00;;;;;;;15.48;68.02;95269.91;5038825;28;20240;-76
2023/07/28 02:26:42;;;;;;;4.90;2.73;;;;;;;15.59;67.70;95275.50;5019736;28;20229;-76
2023/07/28 02:29:08;;;;;;;4.47;2.63;;;;;;;15.69;67.18;95275.78;5030787;28;20234;-77
2023/07/28 02:31:34;;;;;;;3.57;2.80;;;;;;;15.67;67.40;95280.44;5030554;28;20226;-77
2023/07/28 02:34:00;;;;;;;5.47;2.70;;;;;;;15.66;67.10;95278.84;5031567;28;20625;-75
2023/07/28 02:36:25;;;;;;;3.83;2.70;;;;;;;15.37;67.71;95272.47;5027190;28;20225;-76
2023/07/28 02:38:51;;;;;;;3.60;2.47;;;;;;;15.40;67.77;95272.81;5032111;28;20271;-76
2023/07/28 02:41:16;;;;;;;4.47;2.60;;;;;;;15.45;67.38;95272.22;4988584;28;20316;-76
2023/07/28 02:43:42;;;;;;;5.87;2.70;;;;;;;15.27;68.24;95274.78;5031498;28;20238;-76
2023/07/28 02:46:07;;;;;;;4.53;2.70;;;;;;;15.52;67.98;95272.94;5045702;28;20227;-76
2023/07/28 02:48:33;;;;;;;5.13;2.60;;;;;;;15.84;66.11;95271.69;5014145;28;20685;-76
2023/07/28 02:50:58;;;;;;;6.00;3.00;;;;;;;15.58;66.60;95269.41;5020257;28;20237;-76
2023/07/28 02:53:24;;;;;;;5.63;3.20;;;;;;;15.78;65.87;95271.78;5028926;28;20242;-77
2023/07/28 02:55:49;;;;;;;5.40;3.20;;;;;;;15.66;66.72;95263.81;5013072;28;20229;-77
2023/07/28 02:58:15;;;;;;;6.13;3.10;;;;;;;15.81;66.36;95261.59;5014509;28;20241;-77
2023/07/28 03:00:41;;;;;;;6.23;3.00;;;;;;;15.74;66.54;95268.00;5013838;28;20233;-76
2023/07/28 03:03:07;;;;;;;5.40;3.50;;;;;;;15.32;68.35;95269.66;5007451;28;20230;-76
2023/07/28 03:05:33;;;;;;;4.73;3.00;;;;;;;15.40;67.95;95269.38;5014226;28;20312;-76
2023/07/28 03:07:59;;;;;;;6.67;3.50;;;;;;;15.32;68.14;95274.94;4995280;28;20229;-75
2023/07/28 03:10:25;;;;;;;5.00;3.07;;;;;;;15.07;69.15;95276.84;5046183;28;20233;-77
2023/07/28 03:12:50;;;;;;;6.27;3.33;;;;;;;15.12;69.15;95269.88;5012807;28;20262;-77
2023/07/28 03:15:16;;;;;;;7.40;3.20;;;;;;;15.24;68.82;95269.94;5010610;28;20239;-76
2023/07/28 03:17:41;;;;;;;7.27;3.40;;;;;;;15.25;68.61;95272.38;5020634;28;20359;-76
2023/07/28 03:20:08;;;;;;;6.03;3.33;;;;;;;15.27;68.75;95285.34;5022844;28;21092;-75
2023/07/28 03:22:33;;;;;;;4.10;3.30;;;;;;;15.37;68.98;95290.91;4994946;28;20867;-76
2023/07/28 03:24:59;;;;;;;6.47;3.23;;;;;;;15.24;69.02;95283.94;5007126;28;20230;-77
2023/07/28 03:27:24;;;;;;;6.07;3.37;;;;;;;15.10;69.69;95285.13;5031413;28;20232;-79
2023/07/28 03:29:50;;;;;;;5.97;3.40;;;;;;;14.92;70.61;95284.28;5008426;28;21153;-79
2023/07/28 03:32:16;;;;;;;4.33;3.40;;;;;;;15.35;69.41;95292.97;5013713;28;20243;-78
2023/07/28 03:34:42;;;;;;;5.10;3.40;;;;;;;15.38;68.95;95285.41;5000661;28;20233;-78
2023/07/28 03:37:08;;;;;;;5.63;3.40;;;;;;;15.40;69.33;95285.22;5019279;28;20290;-78
2023/07/28 03:39:34;;;;;;;5.77;3.67;;;;;;;15.59;68.05;95289.50;4996596;28;20253;-78
2023/07/28 03:41:59;;;;;;;6.97;3.60;;;;;;;15.65;68.15;95288.59;5015286;28;20282;-78
2023/07/28 03:44:25;;;;;;;5.87;3.70;;;;;;;15.36;69.41;95289.28;5017816;28;20221;-79
2023/07/28 03:46:51;;;;;;;5.07;3.60;;;;;;;15.28;69.99;95300.16;5017890;28;20278;-79
2023/07/28 03:49:16;;;;;;;5.37;3.90;;;;;;;15.25;70.26;95301.41;5031627;28;20221;-78
2023/07/28 03:51:42;;;;;;;6.00;3.60;;;;;;;15.62;68.98;95299.59;5026143;28;20615;-78
2023/07/28 03:54:08;;;;;;;6.47;3.70;;;;;;;15.76;68.25;95290.47;5011788;28;20217;-80
2023/07/28 03:56:33;;;;;;;7.67;4.03;;;;;;;15.65;68.54;95299.16;4996056;28;20259;-79
2023/07/28 03:58:59;;;;;;;8.43;4.23;;;;;;;15.69;68.39;95296.88;5019475;28;20694;-80
2023/07/28 04:01:25;;;;;;;7.80;4.00;;;;;;;15.58;68.84;95301.06;5031055;28;20614;-79
2023/07/28 04:03:51;;;;;;;6.17;4.27;;;;;;;15.45;69.22;95294.09;5000070;28;20233;-78
2023/07/28 04:06:17;;;;;;;10.87;4.63;;;;;;;15.61;68.55;95295.34;5025467;28;20307;-79
2023/07/28 04:08:42;;;;;;;7.33;4.30;;;;;;;15.69;68.35;95284.47;5013931;28;20225;-79
2023/07/28 04:11:11;;;;;;;8.30;4.17;;;;;;;15.63;68.16;95301.22;5012030;28;20318;-78
2023/07/28 04:16:12;;;;;;;6.77;3.90;;;;;;;15.65;68.70;95304.44;5085607;22;20668;-77
2023/07/28 04:18:37;;;;;;;9.67;3.93;;;;;;;15.66;68.26;95306.06;5064845;28;20241;-80
2023/07/28 04:21:05;;;;;;;9.70;4.30;;;;;;;15.38;69.78;95309.16;4964381;28;20728;-79
2023/07/28 04:23:31;;;;;;;8.37;3.97;;;;;;;15.63;69.36;95308.31;4929017;28;20253;-78
2023/07/28 04:25:56;;;;;;;7.87;4.43;;;;;;;15.65;69.09;95307.06;4980264;28;20351;-79
2023/07/28 04:28:24;;;;;;;7.67;4.30;;;;;;;15.79;67.80;95308.50;4901170;28;20237;-79
2023/07/28 04:30:49;;;;;;;9.73;4.47;;;;;;;15.92;67.93;95312.84;4929927;28;20224;-79
2023/07/28 04:33:15;;;;;;;8.70;4.50;;;;;;;16.04;67.99;95309.22;4936423;28;20232;-79
2023/07/28 04:35:41;;;;;;;12.70;4.47;;;;;;;16.05;67.88;95310.81;4933658;29;20237;-79
2023/07/28 04:38:06;;;;;;;7.33;4.10;;;;;;;15.84;67.65;95308.66;4947957;28;20263;-78
2023/07/28 04:40:31;;;;;;;10.27;4.23;;;;;;;15.89;67.71;95310.63;5012971;28;20253;-79
2023/07/28 04:42:57;;;;;;;9.53;4.60;;;;;;;15.74;67.98;95303.09;5013499;28;20240;-80
2023/07/28 04:45:23;;;;;;;6.60;4.40;;;;;;;15.70;68.53;95311.69;5013104;28;20240;-79
2023/07/28 04:47:48;;;;;;;7.07;4.47;;;;;;;16.02;67.43;95310.47;4907675;29;20245;-78
2023/07/28 04:50:14;;;;;;;9.63;4.60;;;;;;;16.00;67.05;95310.69;4932659;29;20241;-78
2023/07/28 04:52:39;;;;;;;8.93;4.43;;;;;;;16.19;67.13;95317.53;4932126;29;20272;-79
2023/07/28 04:55:05;;;;;;;9.07;4.73;;;;;;;16.49;65.93;95311.44;4918292;29;20248;-80
2023/07/28 04:57:31;;;;;;;10.53;4.57;;;;;;;16.42;65.58;95316.00;4980546;28;20834;-79
2023/07/28 04:59:56;;;;;;;6.33;4.40;;;;;;;16.31;64.67;95314.16;4910037;29;20238;-78
2023/07/28 05:02:22;;;;;;;7.67;4.20;;;;;;;16.18;65.73;95315.94;4923687;29;20240;-79
2023/07/28 05:04:48;;;;;;;9.53;4.60;;;;;;;16.28;65.76;95309.31;4936767;29;20259;-79
2023/07/28 05:07:13;;;;;;;6.57;4.20;;;;;;;16.29;65.49;95306.41;4936432;28;20255;-79
2023/07/28 05:09:39;;;;;;;8.90;4.13;;;;;;;16.21;66.55;95309.41;4933240;29;20248;-80
2023/07/28 05:12:05;;;;;;;7.37;4.07;;;;;;;16.27;65.70;95318.25;4920882;29;20247;-78
2023/07/28 05:14:30;;;;;;;8.00;4.00;;;;;;;16.58;64.76;95310.09;4934204;29;20352;-79
2023/07/28 05:16:56;;;;;;;8.00;4.40;;;;;;;16.57;63.94;95311.16;4950160;28;20225;-78
2023/07/28 05:19:22;;;;;;;9.90;4.70;;;;;;;16.54;64.85;95307.13;4917830;28;20240;-78
2023/07/28 05:21:47;;;;;;;10.77;4.73;;;;;;;17.21;61.36;95311.09;4934234;29;20855;-79
2023/07/28 05:24:13;;;;;;;7.37;4.20;;;;;;;18.04;59.45;95313.38;4932938;29;20313;-77
2023/07/28 05:26:38;;;;;;;13.40;4.70;;;;;;;17.49;60.30;95310.38;4938284;29;20236;-78
2023/07/28 05:29:05;;;;;;;8.33;4.70;;;;;;;17.34;60.88;95316.13;4937760;28;20327;-80
2023/07/28 05:31:30;;;;;;;21.27;5.80;;;;;;;17.36;60.62;95313.28;4925397;29;20237;-77
2023/07/28 05:33:56;;;;;;;8.57;5.07;;;;;;;17.23;61.30;95316.94;4931572;29;20233;-79
2023/07/28 05:36:21;;;;;;;8.60;4.83;;;;;;;17.38;60.75;95313.84;4919259;29;20275;-79
2023/07/28 05:38:47;;;;;;;11.83;5.07;;;;;;;17.25;61.25;95316.72;4934572;28;20242;-79
2023/07/28 05:41:12;;;;;;;10.20;4.30;;;;;;;17.48;60.51;95311.41;4935723;29;20229;-79
2023/07/28 05:43:38;;;;;;;9.70;4.77;;;;;;;17.35;61.11;95316.94;4930704;29;20232;-78
2023/07/28 05:46:03;;;;;;;10.63;5.20;;;;;;;17.35;61.49;95307.16;4951651;28;20237;-79
2023/07/28 05:48:29;;;;;;;24.80;5.30;;;;;;;17.39;62.14;95316.25;4931342;29;21131;-77
2023/07/28 05:50:54;;;;;;;16.87;4.73;;;;;;;17.49;61.31;95297.94;4934313;29;20241;-79
2023/07/28 05:53:23;;;;;;;9.30;4.60;;;;;;;17.70;60.84;95295.72;4933638;28;20235;-78
2023/07/28 05:55:48;;;;;;;10.10;4.57;;;;;;;17.76;60.16;95303.56;4922366;28;20244;-81
2023/07/28 05:58:14;;;;;;;5.50;3.70;;;;;;;17.80;60.11;95293.28;4925370;28;20293;-79
2023/07/28 06:00:40;;;;;;;8.37;4.40;;;;;;;17.74;60.24;95296.88;4953829;28;20225;-79
2023/07/28 06:03:07;;;;;;;8.33;3.90;;;;;;;17.73;61.19;95300.56;5017295;28;20312;-78
2023/07/28 06:05:32;;;;;;;14.27;4.00;;;;;;;17.93;61.12;95293.84;4948150;28;20397;-78
2023/07/28 06:07:58;;;;;;;7.13;3.93;;;;;;;18.00;60.64;95288.41;4974115;28;20722;-79
2023/07/28 06:10:23;;;;;;;9.67;4.00;;;;;;;18.05;60.56;95296.44;4933970;28;20934;-78
2023/07/28 06:12:49;;;;;;;10.40;4.07;;;;;;;18.05;60.88;95291.16;4924073;29;20256;-79
2023/07/28 06:15:14;;;;;;;9.60;4.00;;;;;;;18.04;60.66;95289.53;4936694;29;20244;-79
2023/07/28 06:17:40;;;;;;;6.10;4.00;;;;;;;18.06;60.56;95290.09;4925701;29;20324;-79
2023/07/28 06:20:07;;;;;;;7.30;4.33;;;;;;;18.15;60.07;95284.19;4916344;29;20248;-78
2023/07/28 06:22:32;;;;;;;7.93;4.40;;;;;;;18.37;58.61;95278.19;4928614;29;20263;-76
2023/07/28 06:24:58;;;;;;;6.77;4.50;;;;;;;18.33;58.75;95283.19;4932454;29;20694;-76
2023/07/28 06:27:23;;;;;;;8.73;4.40;;;;;;;18.43;59.18;95288.66;4969156;28;20248;-77
2023/07/28 06:29:49;;;;;;;17.80;5.40;;;;;;;18.51;58.92;95288.28;4948726;28;20233;-76
2023/07/28 06:32:14;;;;;;;10.60;4.77;;;;;;;18.77;58.60;95269.09;4928468;28;20250;-77
2023/07/28 06:34:40;;;;;;;11.03;5.20;;;;;;;18.71;58.13;95277.22;4929470;28;20672;-76
2023/07/28 06:37:05;;;;;;;14.57;4.87;;;;;;;18.77;57.10;95285.00;4926537;29;20252;-77
2023/07/28 06:39:31;;;;;;;6.97;4.30;;;;;;;18.74;56.47;95274.09;4931278;29;20718;-77
2023/07/28 06:41:56;;;;;;;8.33;4.90;;;;;;;18.78;55.67;95278.69;4930139;29;20260;-76
2023/07/28 06:44:22;;;;;;;10.27;5.53;;;;;;;18.87;56.38;95286.25;4933758;29;20229;-78
2023/07/28 06:46:47;;;;;;;11.53;5.13;;;;;;;18.84;56.24;95277.69;4998241;28;20225;-76
2023/07/28 06:49:13;;;;;;;8.53;4.70;;;;;;;18.92;57.00;95281.00;4945295;28;20237;-78
2023/07/28 06:51:41;;;;;;;9.20;4.73;;;;;;;19.05;56.16;95284.13;4978258;28;20263;-76
2023/07/28 06:54:12;;;;;;;8.50;4.80;;;;;;;19.19;55.58;95281.94;4920220;28;20233;-76
2023/07/28 06:56:38;;;;;;;9.90;4.60;;;;;;;19.22;55.67;95282.28;4922607;28;20236;-76
2023/07/28 06:59:03;;;;;;;7.03;4.50;;;;;;;19.31;56.00;95277.34;4927779;29;20249;-76
2023/07/28 07:01:29;;;;;;;7.50;4.80;;;;;;;19.24;55.72;95276.72;4930383;28;20712;-76
2023/07/28 07:03:55;;;;;;;8.80;4.80;;;;;;;19.20;55.70;95276.38;4928767;29;20332;-78
2023/07/28 07:06:21;;;;;;;7.90;4.33;;;;;;;19.35;55.58;95276.59;4918294;28;20237;-77
2023/07/28 07:08:46;;;;;;;11.43;4.60;;;;;;;19.57;55.42;95275.84;4921058;29;20237;-77
2023/07/28 07:11:12;;;;;;;12.53;4.97;;;;;;;19.70;54.61;95284.28;4947381;28;20241;-74
2023/07/28 07:13:37;;;;;;;13.20;4.60;;;;;;;19.57;54.77;95278.50;4929267;29;20233;-77
2023/07/28 07:16:03;;;;;;;7.70;4.40;;;;;;;19.49;55.22;95279.72;4929962;29;20237;-76
2023/07/28 07:18:29;;;;;;;6.80;4.50;;;;;;;19.54;55.77;95274.47;4924617;28;20243;-77
2023/07/28 07:20:54;;;;;;;8.40;4.27;;;;;;;19.69;54.81;95280.00;4978355;28;20292;-76
2023/07/28 07:23:20;;;;;;;10.43;4.63;;;;;;;19.55;54.34;95281.41;4964716;28;20240;-75
2023/07/28 07:25:48;;;;;;;9.27;4.30;;;;;;;19.78;55.47;95280.34;4910085;28;20320;-78
2023/07/28 07:28:14;;;;;;;8.90;4.63;;;;;;;19.75;53.66;95278.22;4973808;28;20245;-79
2023/07/28 07:30:40;;;;;;;6.03;4.40;;;;;;;19.79;53.49;95281.97;4933054;29;20747;-76
2023/07/28 07:33:05;;;;;;;8.77;4.67;;;;;;;19.97;53.11;95287.75;5014830;28;20233;-78
2023/07/28 07:35:31;;;;;;;7.67;4.60;;;;;;;20.06;53.12;95285.50;4931376;28;20298;-77
2023/07/28 07:37:56;;;;;;;6.87;4.63;;;;;;;19.98;52.97;95284.06;4974970;28;20252;-80
2023/07/28 07:40:23;;;;;;;9.33;4.50;;;;;;;20.02;53.54;95290.47;5011636;28;20331;-77
2023/07/28 07:42:48;;;;;;;7.17;4.13;;;;;;;20.28;52.29;95296.09;4926872;28;20237;-76
2023/07/28 07:45:14;;;;;;;7.37;4.27;;;;;;;19.94;52.31;95282.16;4928868;28;20239;-77
2023/07/28 07:47:40;;;;;;;8.77;4.30;;;;;;;19.91;52.21;95286.13;4916415;28;20237;-78
2023/07/28 07:50:08;;;;;;;9.20;4.80;;;;;;;20.18;51.97;95292.25;4915513;29;20237;-77
2023/07/28 07:52:35;;;;;;;10.47;4.50;;;;;;;20.29;52.51;95287.06;4984265;28;20729;-79
2023/07/28 07:55:02;;;;;;;7.37;4.33;;;;;;;20.40;51.81;95289.56;4930006;29;20237;-77
2023/07/28 07:57:27;;;;;;;8.47;4.23;;;;;;;20.54;50.62;95285.44;4925103;29;20237;-77
2023/07/28 07:59:53;;;;;;;8.80;4.20;;;;;;;20.55;50.62;95292.41;4968557;28;20229;-76
2023/07/28 08:02:18;;;;;;;7.53;3.80;;;;;;;20.64;51.20;95290.06;4932953;28;20225;-78
2023/07/28 08:04:44;;;;;;;68.90;5.67;;;;;;;20.89;49.67;95302.78;4933360;29;20241;-76
2023/07/28 08:07:10;;;;;;;14.20;4.40;;;;;;;20.98;49.25;95291.44;4946931;28;20232;-76
2023/07/28 08:09:37;;;;;;;6.50;4.03;;;;;;;20.73;49.76;95294.66;4933145;29;20233;-76
2023/07/28 08:12:02;;;;;;;11.30;4.20;;;;;;;20.87;50.27;95294.25;4933712;29;20233;-76
2023/07/28 08:14:28;;;;;;;11.43;4.13;;;;;;;20.99;50.23;95285.06;4932986;28;20290;-77
2023/07/28 08:16:54;;;;;;;13.80;3.83;;;;;;;21.21;48.22;95283.09;4921211;29;20263;-77
2023/07/28 08:19:19;;;;;;;8.67;3.80;;;;;;;21.30;47.16;95283.44;4925075;28;21157;-76
2023/07/28 08:21:45;;;;;;;7.73;3.50;;;;;;;21.28;48.80;95278.34;4930212;29;20260;-76
2023/07/28 08:24:11;;;;;;;8.23;3.63;;;;;;;21.48;47.50;95273.16;4917484;28;20770;-77
2023/07/28 08:26:37;;;;;;;8.03;3.63;;;;;;;21.59;47.75;95276.66;4932132;29;20241;-76
2023/07/28 08:29:07;;;;;;;6.47;3.70;;;;;;;21.63;47.21;95274.28;4945264;28;20241;-76
2023/07/28 08:31:32;;;;;;;7.77;3.60;;;;;;;21.69;48.14;95274.03;4953080;28;20266;-77
2023/07/28 08:33:58;;;;;;;7.40;3.58;;;;;;;21.80;47.74;95278.38;4920359;28;20260;-76
2023/07/28 08:36:23;;;;;;;5.77;3.60;;;;;;;21.91;47.29;95280.03;4931737;28;20290;-78
2023/07/28 08:38:49;;;;;;;8.93;3.65;;;;;;;21.92;47.67;95276.31;4935601;28;20246;-76
2023/07/28 08:41:15;;;;;;;9.40;4.07;;;;;;;22.10;47.89;95277.69;4942613;28;20708;-77
2023/07/28 08:43:41;;;;;;;6.13;3.70;;;;;;;22.26;46.88;95275.88;4933236;28;20241;-78
2023/07/28 08:46:06;;;;;;;6.95;3.47;;;;;;;22.39;46.67;95278.84;4926119;28;20635;-76
2023/07/28 08:48:32;;;;;;;5.72;3.75;;;;;;;22.64;46.69;95268.22;4916241;28;20232;-77
2023/07/28 08:50:57;;;;;;;6.88;3.80;;;;;;;22.64;45.96;95268.22;4922186;28;20247;-76
2023/07/28 08:53:23;;;;;;;6.87;3.73;;;;;;;22.57;46.42;95267.66;4934075;28;20263;-77
2023/07/28 08:55:48;;;;;;;7.55;3.70;;;;;;;22.64;45.82;95262.88;4926293;28;20245;-77
2023/07/28 08:58:15;;;;;;;7.40;4.70;;;;;;;22.68;45.78;95255.16;4917711;28;20240;-77
2023/07/28 09:00:41;;;;;;;5.75;3.67;;;;;;;22.81;45.73;95257.28;4932917;28;20233;-77
2023/07/28 09:03:09;;;;;;;7.55;3.60;;;;;;;22.89;45.64;95248.75;4917629;28;20329;-76
2023/07/28 09:05:35;;;;;;;6.35;3.50;;;;;;;23.00;44.99;95246.88;4941793;28;20331;-77
2023/07/28 09:08:01;;;;;;;6.38;3.55;;;;;;;23.13;45.02;95243.66;4926848;28;20233;-77
2023/07/28 09:10:39;;;;;;;7.28;3.65;;;;;;;23.15;45.17;95230.81;4931299;28;20636;-78
2023/07/28 09:13:07;;;;;;;7.57;3.40;;;;;;;23.23;45.04;95230.28;4940977;28;20335;-77
2023/07/28 09:15:35;;;;;;;5.43;3.47;;;;;;;23.32;45.22;95221.44;4976558;28;20241;-77
2023/07/28 09:18:00;;;;;;;12.27;3.83;;;;;;;23.53;45.31;95216.84;4972001;28;20322;-76
2023/07/28 09:20:32;;;;;;;5.72;3.55;;;;;;;23.50;43.46;95214.72;4936110;28;21642;-77
2023/07/28 09:22:58;;;;;;;5.30;3.47;;;;;;;23.55;43.89;95212.03;4938667;28;20275;-77
2023/07/28 09:25:24;;;;;;;10.10;3.83;;;;;;;23.59;43.64;95209.63;4977377;28;20288;-77
2023/07/28 09:27:50;;;;;;;7.28;3.65;;;;;;;23.76;43.19;95210.91;4934024;28;20719;-76
2023/07/28 09:30:16;;;;;;;9.73;3.60;;;;;;;23.86;42.99;95202.03;4927443;28;20241;-77
2023/07/28 09:32:47;;;;;;;9.43;3.65;;;;;;;23.80;42.88;95197.75;4932900;28;20344;-76
2023/07/28 09:35:13;;;;;;;7.65;3.60;;;;;;;24.08;42.60;95197.91;5023506;28;20293;-76
2023/07/28 09:37:40;;;;;;;7.43;3.42;;;;;;;24.23;42.05;95193.53;4918267;29;20230;-78
2023/07/28 09:40:11;;;;;;;6.07;3.50;;;;;;;24.29;42.31;95193.22;4933693;28;20229;-78
2023/07/28 09:42:38;;;;;;;5.82;3.67;;;;;;;24.32;41.17;95184.66;5014909;28;20221;-75
2023/07/28 09:45:05;;;;;;;7.65;3.85;;;;;;;24.29;40.91;95185.19;4995013;28;20289;-76
2023/07/28 09:47:30;;;;;;;6.32;3.60;;;;;;;24.52;41.20;95171.13;4922550;28;20267;-75
2023/07/28 09:49:58;;;;;;;5.28;3.50;;;;;;;24.74;40.18;95171.44;4930713;28;20239;-76
2023/07/28 09:52:23;;;;;;;7.55;3.58;;;;;;;24.72;40.75;95176.28;4943828;28;20228;-76
2023/07/28 09:54:49;;;;;;;8.48;3.60;;;;;;;24.83;39.90;95178.91;4921854;28;20789;-76
2023/07/28 09:57:19;;;;;;;5.82;3.50;;;;;;;24.94;40.53;95173.16;4938767;28;20244;-76
2023/07/28 09:59:45;;;;;;;6.30;3.90;;;;;;;24.91;39.33;95167.59;4923728;28;20233;-76
2023/07/28 10:02:10;;;;;;;5.38;3.35;;;;;;;24.86;38.49;95165.78;4956046;28;20280;-76
2023/07/28 10:04:36;;;;;;;6.10;3.50;;;;;;;25.07;39.85;95169.84;4936593;28;20620;-77
2023/07/28 10:07:03;;;;;;;8.20;3.42;;;;;;;25.35;39.22;95160.16;4954100;28;20323;-76
2023/07/28 10:09:30;;;;;;;5.22;3.60;;;;;;;25.51;40.19;95166.19;4954725;28;20224;-76
2023/07/28 10:11:55;;;;;;;6.88;3.58;;;;;;;25.49;37.72;95157.59;4937283;28;20886;-70
2023/07/28 10:14:29;;;;;;;4.93;3.33;;;;;;;25.45;37.96;95159.25;4933099;28;20232;-70
2023/07/28 10:16:55;;;;;;;6.78;3.80;;;;;;;25.60;39.00;95154.53;4952464;28;20236;-70
2023/07/28 10:19:21;;;;;;;5.65;3.50;;;;;;;25.86;38.92;95152.31;4917022;28;21070;-71
2023/07/28 10:21:46;;;;;;;5.32;3.60;;;;;;;25.96;38.72;95165.59;4924601;28;20253;-69
2023/07/28 10:24:14;;;;;;;6.25;3.80;;;;;;;25.97;37.88;95151.06;4928319;28;20290;-71
2023/07/28 10:26:47;;;;;;;7.50;3.92;;;;;;;25.69;36.87;95160.84;4928625;28;20240;-70
2023/07/28 10:29:13;;;;;;;7.07;4.30;;;;;;;25.86;38.04;95149.63;4939622;28;20949;-70
2023/07/28 10:31:52;;;;;;;7.07;4.10;;;;;;;25.98;37.63;95144.63;4933901;28;20235;-71
2023/07/28 10:34:18;;;;;;;12.30;4.15;;;;;;;26.16;38.25;95143.03;4937220;28;20793;-70
2023/07/28 10:36:44;;;;;;;10.38;4.03;;;;;;;26.34;38.32;95136.88;4984625;28;20276;-68
2023/07/28 10:39:14;;;;;;;7.90;3.92;;;;;;;26.53;37.55;95130.34;4938187;28;20236;-69
2023/07/28 10:41:59;;;;;;;7.35;3.60;;;;;;;26.58;36.67;95137.56;4938990;29;20275;-70
2023/07/28 10:44:25;;;;;;;8.65;3.60;;;;;;;26.66;37.17;95131.47;4933961;28;20272;-70
2023/07/28 10:46:50;;;;;;;5.85;3.80;;;;;;;26.72;36.25;95125.72;4917081;29;20248;-69
2023/07/28 10:49:16;;;;;;;8.00;3.67;;;;;;;26.91;36.10;95124.91;4935633;28;20247;-71
2023/07/28 10:51:42;;;;;;;10.88;3.95;;;;;;;26.89;36.26;95124.41;4928535;29;20275;-70
2023/07/28 10:54:08;;;;;;;7.10;3.70;;;;;;;26.79;36.16;95114.66;4919770;28;20597;-71
2023/07/28 10:56:33;;;;;;;8.98;3.97;;;;;;;26.90;36.89;95123.31;4930452;29;20245;-69
2023/07/28 10:59:01;;;;;;;10.38;4.97;;;;;;;27.12;35.46;95118.06;4929887;29;20221;-70
2023/07/28 11:01:37;;;;;;;6.30;3.85;;;;;;;27.21;35.07;95109.00;4931907;28;20236;-71
2023/07/28 11:04:17;;;;;;;8.13;3.70;;;;;;;27.16;35.51;95105.59;5019291;28;20651;-71
2023/07/28 11:06:49;;;;;;;10.13;4.00;;;;;;;27.22;35.89;95109.81;4972522;28;20269;-70
2023/07/28 11:09:16;;;;;;;9.13;3.60;;;;;;;27.07;36.34;95102.03;4939455;28;20726;-70
2023/07/28 11:11:42;;;;;;;7.47;3.85;;;;;;;27.09;35.07;95102.53;4930558;29;20829;-70
2023/07/28 11:14:08;;;;;;;7.85;3.80;;;;;;;27.17;35.54;95096.47;4923955;28;20238;-70
2023/07/28 11:16:35;;;;;;;6.90;3.85;;;;;;;27.40;35.26;95092.78;4968912;28;20756;-69
2023/07/28 11:19:02;;;;;;;6.00;3.63;;;;;;;27.42;35.32;95089.81;4924535;29;20252;-69
2023/07/28 11:21:28;;;;;;;6.72;3.70;;;;;;;27.45;34.82;95084.63;4928124;29;20238;-70
2023/07/28 11:23:53;;;;;;;7.38;3.50;;;;;;;27.48;34.66;95086.72;4935351;29;20229;-70
2023/07/28 11:26:22;;;;;;;6.68;3.72;;;;;;;27.53;34.04;95083.91;4928919;28;20241;-69
2023/07/28 11:28:47;;;;;;;8.63;4.10;;;;;;;27.44;35.09;95085.72;4920521;29;20731;-70